sensor_id;sensor_type;location;lat;lon;timestamp;temperature;humidity
19437;DHT22;9854;50.968;4.168;2022-08-11T00:02:51;23.80;99.90
19437;DHT22;9854;50.968;4.168;2022-08-11T00:05:20;23.70;99.90
19437;DHT22;9854;50.968;4.168;2022-08-11T00:07:47;23.70;99.90
19437;DHT22;9854;50.968;4.168;2022-08-11T00:10:17;23.60;99.90
19437;DHT22;9854;50.968;4.168;2022-08-11T00:12:45;23.50;99.90
19437;DHT22;9854;50.968;4.168;2022-08-11T00:15:14;23.40;99.90
19437;DHT22;9854;50.968;4.168;2022-08-11T00:17:41;23.50;99.90
19437;DHT22;9854;50.968;4.168;2022-08-11T00:20:10;23.50;99.90
19437;DHT22;9854;50.968;4.168;2022-08-11T00:22:38;23.40;99.90
19437;DHT22;9854;50.968;4.168;2022-08-11T00:25:13;23.30;99.90
19437;DHT22;9854;50.968;4.168;2022-08-11T00:27:40;23.40;99.90
19437;DHT22;9854;50.968;4.168;2022-08-11T00:30:07;23.40;99.90
19437;DHT22;9854;50.968;4.168;2022-08-11T00:32:34;23.40;99.90
19437;DHT22;9854;50.968;4.168;2022-08-11T00:35:02;23.40;99.90
19437;DHT22;9854;50.968;4.168;2022-08-11T00:37:29;23.30;99.90
19437;DHT22;9854;50.968;4.168;2022-08-11T00:39:56;23.30;99.90
19437;DHT22;9854;50.968;4.168;2022-08-11T00:43:14;23.30;99.90
19437;DHT22;9854;50.968;4.168;2022-08-11T00:45:23;23.20;99.90
19437;DHT22;9854;50.968;4.168;2022-08-11T00:53:36;23.00;99.90
19437;DHT22;9854;50.968;4.168;2022-08-11T00:56:38;23.00;99.90
19437;DHT22;9854;50.968;4.168;2022-08-11T01:02:37;22.80;99.90
19437;DHT22;9854;50.968;4.168;2022-08-11T01:24:58;22.60;99.90
19437;DHT22;9854;50.968;4.168;2022-08-11T01:39:06;22.40;99.90
19437;DHT22;9854;50.968;4.168;2022-08-11T01:47:15;22.10;99.90
19437;DHT22;9854;50.968;4.168;2022-08-11T01:59:07;22.20;99.90
19437;DHT22;9854;50.968;4.168;2022-08-11T02:04:46;21.90;99.90
19437;DHT22;9854;50.968;4.168;2022-08-11T02:10:05;22.10;99.90
19437;DHT22;9854;50.968;4.168;2022-08-11T02:12:58;21.90;99.90
19437;DHT22;9854;50.968;4.168;2022-08-11T02:15:29;21.70;99.90
19437;DHT22;9854;50.968;4.168;2022-08-11T02:18:12;21.70;99.90
19437;DHT22;9854;50.968;4.168;2022-08-11T02:20:54;21.60;99.90
19437;DHT22;9854;50.968;4.168;2022-08-11T02:26:17;21.40;99.90
19437;DHT22;9854;50.968;4.168;2022-08-11T02:35:40;21.30;99.90
19437;DHT22;9854;50.968;4.168;2022-08-11T02:47:15;21.00;99.90
19437;DHT22;9854;50.968;4.168;2022-08-11T02:50:11;21.20;99.90
19437;DHT22;9854;50.968;4.168;2022-08-11T02:58:16;20.90;99.90
19437;DHT22;9854;50.968;4.168;2022-08-11T03:03:32;20.90;99.90
19437;DHT22;9854;50.968;4.168;2022-08-11T03:06:11;20.90;99.90
19437;DHT22;9854;50.968;4.168;2022-08-11T03:11:30;21.00;99.90
19437;DHT22;9854;50.968;4.168;2022-08-11T03:14:28;21.00;99.90
19437;DHT22;9854;50.968;4.168;2022-08-11T03:17:40;20.80;99.90
19437;DHT22;9854;50.968;4.168;2022-08-11T03:31:34;20.60;99.90
19437;DHT22;9854;50.968;4.168;2022-08-11T03:34:07;20.40;99.90
19437;DHT22;9854;50.968;4.168;2022-08-11T03:41:47;20.40;99.90
19437;DHT22;9854;50.968;4.168;2022-08-11T03:47:22;20.30;99.90
19437;DHT22;9854;50.968;4.168;2022-08-11T03:50:01;20.10;99.90
19437;DHT22;9854;50.968;4.168;2022-08-11T03:52:38;20.00;99.90
19437;DHT22;9854;50.968;4.168;2022-08-11T04:17:48;19.90;99.90
19437;DHT22;9854;50.968;4.168;2022-08-11T04:37:22;19.60;99.90
19437;DHT22;9854;50.968;4.168;2022-08-11T04:58:09;19.70;99.90
19437;DHT22;9854;50.968;4.168;2022-08-11T05:01:24;19.80;99.90
19437;DHT22;9854;50.968;4.168;2022-08-11T05:13:03;19.80;99.90
19437;DHT22;9854;50.968;4.168;2022-08-11T05:15:54;19.80;99.90
19437;DHT22;9854;50.968;4.168;2022-08-11T05:18:47;19.80;99.90
19437;DHT22;9854;50.968;4.168;2022-08-11T05:21:34;19.80;99.90
19437;DHT22;9854;50.968;4.168;2022-08-11T05:24:49;19.80;99.90
19437;DHT22;9854;50.968;4.168;2022-08-11T05:27:49;19.80;99.90
19437;DHT22;9854;50.968;4.168;2022-08-11T05:30:37;19.90;99.90
19437;DHT22;9854;50.968;4.168;2022-08-11T05:33:32;20.00;99.90
19437;DHT22;9854;50.968;4.168;2022-08-11T05:39:02;20.10;99.90
19437;DHT22;9854;50.968;4.168;2022-08-11T05:41:48;20.10;99.90
19437;DHT22;9854;50.968;4.168;2022-08-11T05:44:34;20.10;99.90
19437;DHT22;9854;50.968;4.168;2022-08-11T05:47:23;20.30;99.90
19437;DHT22;9854;50.968;4.168;2022-08-11T05:50:10;20.40;99.90
19437;DHT22;9854;50.968;4.168;2022-08-11T05:52:56;20.50;99.90
19437;DHT22;9854;50.968;4.168;2022-08-11T05:55:42;20.50;99.90
19437;DHT22;9854;50.968;4.168;2022-08-11T05:58:35;20.70;99.90
19437;DHT22;9854;50.968;4.168;2022-08-11T06:01:01;20.70;99.90
19437;DHT22;9854;50.968;4.168;2022-08-11T06:03:28;20.80;99.90
19437;DHT22;9854;50.968;4.168;2022-08-11T06:05:56;20.80;99.90
19437;DHT22;9854;50.968;4.168;2022-08-11T06:08:32;20.80;99.90
19437;DHT22;9854;50.968;4.168;2022-08-11T06:11:03;21.00;99.90
19437;DHT22;9854;50.968;4.168;2022-08-11T06:13:30;21.10;99.90
19437;DHT22;9854;50.968;4.168;2022-08-11T06:15:57;21.20;99.90
19437;DHT22;9854;50.968;4.168;2022-08-11T06:18:23;21.30;99.90
19437;DHT22;9854;50.968;4.168;2022-08-11T06:20:55;21.40;99.90
19437;DHT22;9854;50.968;4.168;2022-08-11T06:23:23;21.50;99.90
19437;DHT22;9854;50.968;4.168;2022-08-11T06:25:51;21.60;99.90
19437;DHT22;9854;50.968;4.168;2022-08-11T06:28:18;21.60;99.90
19437;DHT22;9854;50.968;4.168;2022-08-11T06:30:55;21.70;99.90
19437;DHT22;9854;50.968;4.168;2022-08-11T06:36:34;21.90;99.90
19437;DHT22;9854;50.968;4.168;2022-08-11T06:39:21;22.00;99.90
19437;DHT22;9854;50.968;4.168;2022-08-11T06:42:04;22.00;99.90
19437;DHT22;9854;50.968;4.168;2022-08-11T06:44:38;22.00;99.90
19437;DHT22;9854;50.968;4.168;2022-08-11T06:47:09;21.90;99.90
19437;DHT22;9854;50.968;4.168;2022-08-11T06:49:46;22.00;99.90
19437;DHT22;9854;50.968;4.168;2022-08-11T06:52:38;22.20;99.90
19437;DHT22;9854;50.968;4.168;2022-08-11T06:55:27;22.30;99.90
19437;DHT22;9854;50.968;4.168;2022-08-11T06:58:13;22.40;99.90
19437;DHT22;9854;50.968;4.168;2022-08-11T07:01:05;22.60;99.90
19437;DHT22;9854;50.968;4.168;2022-08-11T07:03:38;22.70;99.90
19437;DHT22;9854;50.968;4.168;2022-08-11T07:06:13;22.80;99.90
19437;DHT22;9854;50.968;4.168;2022-08-11T07:14:32;23.00;99.90
19437;DHT22;9854;50.968;4.168;2022-08-11T07:17:21;23.00;99.90
19437;DHT22;9854;50.968;4.168;2022-08-11T07:19:57;23.10;99.90
19437;DHT22;9854;50.968;4.168;2022-08-11T07:22:48;23.20;99.90
19437;DHT22;9854;50.968;4.168;2022-08-11T07:25:38;23.30;99.90
19437;DHT22;9854;50.968;4.168;2022-08-11T07:28:25;23.30;99.90
19437;DHT22;9854;50.968;4.168;2022-08-11T07:31:13;23.40;99.90
19437;DHT22;9854;50.968;4.168;2022-08-11T07:33:47;23.60;99.90
19437;DHT22;9854;50.968;4.168;2022-08-11T07:36:15;23.70;99.90
19437;DHT22;9854;50.968;4.168;2022-08-11T07:38:47;23.80;99.90
19437;DHT22;9854;50.968;4.168;2022-08-11T07:41:17;24.00;99.90
19437;DHT22;9854;50.968;4.168;2022-08-11T07:43:45;24.20;99.90
19437;DHT22;9854;50.968;4.168;2022-08-11T07:46:14;24.30;99.90
19437;DHT22;9854;50.968;4.168;2022-08-11T07:48:59;24.40;99.90
19437;DHT22;9854;50.968;4.168;2022-08-11T07:51:45;24.60;99.90
19437;DHT22;9854;50.968;4.168;2022-08-11T07:54:30;24.70;99.90
19437;DHT22;9854;50.968;4.168;2022-08-11T07:56:56;24.70;99.90
19437;DHT22;9854;50.968;4.168;2022-08-11T07:59:24;24.80;99.90
19437;DHT22;9854;50.968;4.168;2022-08-11T08:02:10;24.90;99.90
19437;DHT22;9854;50.968;4.168;2022-08-11T08:04:56;25.00;99.90
19437;DHT22;9854;50.968;4.168;2022-08-11T08:07:41;25.20;99.90
19437;DHT22;9854;50.968;4.168;2022-08-11T08:10:26;25.30;99.90
19437;DHT22;9854;50.968;4.168;2022-08-11T08:13:11;25.50;99.90
19437;DHT22;9854;50.968;4.168;2022-08-11T08:15:56;25.60;99.90
19437;DHT22;9854;50.968;4.168;2022-08-11T08:18:41;25.70;99.90
19437;DHT22;9854;50.968;4.168;2022-08-11T08:21:07;25.60;99.90
19437;DHT22;9854;50.968;4.168;2022-08-11T08:23:38;25.80;99.90
19437;DHT22;9854;50.968;4.168;2022-08-11T08:26:08;26.00;99.90
19437;DHT22;9854;50.968;4.168;2022-08-11T08:28:54;26.00;99.90
19437;DHT22;9854;50.968;4.168;2022-08-11T08:31:41;26.20;99.90
19437;DHT22;9854;50.968;4.168;2022-08-11T08:34:07;26.30;99.90
19437;DHT22;9854;50.968;4.168;2022-08-11T08:36:34;26.40;99.90
19437;DHT22;9854;50.968;4.168;2022-08-11T08:38:59;26.60;99.90
19437;DHT22;9854;50.968;4.168;2022-08-11T08:41:28;26.70;99.90
19437;DHT22;9854;50.968;4.168;2022-08-11T08:43:58;26.70;99.90
19437;DHT22;9854;50.968;4.168;2022-08-11T08:46:34;26.90;99.90
19437;DHT22;9854;50.968;4.168;2022-08-11T08:49:02;27.00;99.90
19437;DHT22;9854;50.968;4.168;2022-08-11T08:51:30;27.10;99.90
19437;DHT22;9854;50.968;4.168;2022-08-11T08:54:05;27.20;99.90
19437;DHT22;9854;50.968;4.168;2022-08-11T08:56:32;27.40;99.90
19437;DHT22;9854;50.968;4.168;2022-08-11T08:59:02;27.40;99.90
19437;DHT22;9854;50.968;4.168;2022-08-11T09:01:32;27.50;99.90
19437;DHT22;9854;50.968;4.168;2022-08-11T09:04:02;27.50;99.90
19437;DHT22;9854;50.968;4.168;2022-08-11T09:06:31;27.70;99.90
19437;DHT22;9854;50.968;4.168;2022-08-11T09:08:58;27.80;99.90
19437;DHT22;9854;50.968;4.168;2022-08-11T09:11:24;27.80;99.90
19437;DHT22;9854;50.968;4.168;2022-08-11T09:14:09;27.90;99.90
19437;DHT22;9854;50.968;4.168;2022-08-11T09:16:36;28.00;99.90
19437;DHT22;9854;50.968;4.168;2022-08-11T09:19:04;28.20;99.90
19437;DHT22;9854;50.968;4.168;2022-08-11T09:21:30;28.30;99.90
19437;DHT22;9854;50.968;4.168;2022-08-11T09:23:56;28.40;99.90
19437;DHT22;9854;50.968;4.168;2022-08-11T09:26:42;28.50;99.90
19437;DHT22;9854;50.968;4.168;2022-08-11T09:29:29;28.60;99.90
19437;DHT22;9854;50.968;4.168;2022-08-11T09:31:57;28.80;99.90
19437;DHT22;9854;50.968;4.168;2022-08-11T09:34:24;28.90;99.90
19437;DHT22;9854;50.968;4.168;2022-08-11T09:36:50;28.90;99.90
19437;DHT22;9854;50.968;4.168;2022-08-11T09:39:37;29.00;99.90
19437;DHT22;9854;50.968;4.168;2022-08-11T09:42:22;29.10;99.90
19437;DHT22;9854;50.968;4.168;2022-08-11T09:45:13;29.20;99.90
19437;DHT22;9854;50.968;4.168;2022-08-11T09:47:39;29.20;99.90
19437;DHT22;9854;50.968;4.168;2022-08-11T09:50:09;29.30;99.90
19437;DHT22;9854;50.968;4.168;2022-08-11T09:52:37;29.50;99.90
19437;DHT22;9854;50.968;4.168;2022-08-11T09:55:04;29.50;99.90
19437;DHT22;9854;50.968;4.168;2022-08-11T09:57:38;29.60;99.90
19437;DHT22;9854;50.968;4.168;2022-08-11T10:00:28;29.60;99.90
19437;DHT22;9854;50.968;4.168;2022-08-11T10:02:55;29.70;99.90
19437;DHT22;9854;50.968;4.168;2022-08-11T10:05:22;29.90;99.90
19437;DHT22;9854;50.968;4.168;2022-08-11T10:08:09;30.10;99.90
19437;DHT22;9854;50.968;4.168;2022-08-11T10:10:38;30.20;99.90
19437;DHT22;9854;50.968;4.168;2022-08-11T10:13:09;30.40;99.90
19437;DHT22;9854;50.968;4.168;2022-08-11T10:15:36;30.50;99.90
19437;DHT22;9854;50.968;4.168;2022-08-11T10:18:14;30.50;99.90
19437;DHT22;9854;50.968;4.168;2022-08-11T10:21:01;30.70;99.90
19437;DHT22;9854;50.968;4.168;2022-08-11T10:23:31;30.80;99.90
19437;DHT22;9854;50.968;4.168;2022-08-11T10:26:18;31.00;99.90
19437;DHT22;9854;50.968;4.168;2022-08-11T10:29:04;30.80;99.90
19437;DHT22;9854;50.968;4.168;2022-08-11T10:31:54;31.00;99.90
19437;DHT22;9854;50.968;4.168;2022-08-11T10:34:39;31.10;99.90
19437;DHT22;9854;50.968;4.168;2022-08-11T10:37:06;31.20;99.90
19437;DHT22;9854;50.968;4.168;2022-08-11T10:39:32;31.20;99.90
19437;DHT22;9854;50.968;4.168;2022-08-11T10:41:59;31.40;99.90
19437;DHT22;9854;50.968;4.168;2022-08-11T10:44:45;31.60;99.40
19437;DHT22;9854;50.968;4.168;2022-08-11T10:47:13;31.70;98.80
19437;DHT22;9854;50.968;4.168;2022-08-11T10:49:58;31.80;98.20
19437;DHT22;9854;50.968;4.168;2022-08-11T10:52:46;31.90;98.10
19437;DHT22;9854;50.968;4.168;2022-08-11T10:55:31;32.00;97.40
19437;DHT22;9854;50.968;4.168;2022-08-11T10:58:16;32.10;97.00
19437;DHT22;9854;50.968;4.168;2022-08-11T11:01:01;32.20;97.10
19437;DHT22;9854;50.968;4.168;2022-08-11T11:03:29;32.30;96.60
19437;DHT22;9854;50.968;4.168;2022-08-11T11:08:55;32.30;96.70
19437;DHT22;9854;50.968;4.168;2022-08-11T11:11:24;32.60;95.40
19437;DHT22;9854;50.968;4.168;2022-08-11T11:14:17;32.60;95.10
19437;DHT22;9854;50.968;4.168;2022-08-11T11:17:04;32.70;95.50
19437;DHT22;9854;50.968;4.168;2022-08-11T11:19:52;32.80;95.60
19437;DHT22;9854;50.968;4.168;2022-08-11T11:22:20;32.90;95.60
19437;DHT22;9854;50.968;4.168;2022-08-11T11:30:40;33.10;94.00
19437;DHT22;9854;50.968;4.168;2022-08-11T11:36:48;33.00;93.30
19437;DHT22;9854;50.968;4.168;2022-08-11T11:39:22;33.10;93.30
19437;DHT22;9854;50.968;4.168;2022-08-11T11:41:52;33.30;93.20
19437;DHT22;9854;50.968;4.168;2022-08-11T11:44:19;33.60;92.40
19437;DHT22;9854;50.968;4.168;2022-08-11T11:46:46;33.70;92.70
19437;DHT22;9854;50.968;4.168;2022-08-11T11:49:12;33.70;92.90
19437;DHT22;9854;50.968;4.168;2022-08-11T11:51:40;33.80;92.80
19437;DHT22;9854;50.968;4.168;2022-08-11T11:54:06;33.90;92.80
19437;DHT22;9854;50.968;4.168;2022-08-11T11:56:34;34.10;92.50
19437;DHT22;9854;50.968;4.168;2022-08-11T11:59:01;34.00;91.00
19437;DHT22;9854;50.968;4.168;2022-08-11T12:01:46;34.00;91.30
19437;DHT22;9854;50.968;4.168;2022-08-11T12:04:14;33.90;91.10
19437;DHT22;9854;50.968;4.168;2022-08-11T12:06:44;33.90;91.30
19437;DHT22;9854;50.968;4.168;2022-08-11T12:09:11;34.10;90.60
19437;DHT22;9854;50.968;4.168;2022-08-11T12:11:48;33.90;90.30
19437;DHT22;9854;50.968;4.168;2022-08-11T12:14:33;34.10;91.00
19437;DHT22;9854;50.968;4.168;2022-08-11T12:17:01;34.20;90.80
19437;DHT22;9854;50.968;4.168;2022-08-11T12:19:27;34.40;90.60
19437;DHT22;9854;50.968;4.168;2022-08-11T12:21:56;34.10;89.90
19437;DHT22;9854;50.968;4.168;2022-08-11T12:24:41;34.00;90.40
19437;DHT22;9854;50.968;4.168;2022-08-11T12:27:28;34.30;90.10
19437;DHT22;9854;50.968;4.168;2022-08-11T12:30:00;34.70;90.20
19437;DHT22;9854;50.968;4.168;2022-08-11T12:32:31;34.80;88.70
19437;DHT22;9854;50.968;4.168;2022-08-11T12:34:58;34.90;87.30
19437;DHT22;9854;50.968;4.168;2022-08-11T12:37:29;35.10;85.20
19437;DHT22;9854;50.968;4.168;2022-08-11T12:39:59;35.00;85.50
19437;DHT22;9854;50.968;4.168;2022-08-11T12:42:44;35.10;87.50
19437;DHT22;9854;50.968;4.168;2022-08-11T12:45:30;35.00;86.90
19437;DHT22;9854;50.968;4.168;2022-08-11T12:50:45;34.50;87.30
19437;DHT22;9854;50.968;4.168;2022-08-11T12:53:35;34.40;86.80
19437;DHT22;9854;50.968;4.168;2022-08-11T12:56:05;34.30;87.70
19437;DHT22;9854;50.968;4.168;2022-08-11T12:58:51;34.50;88.90
19437;DHT22;9854;50.968;4.168;2022-08-11T13:01:18;35.00;87.30
19437;DHT22;9854;50.968;4.168;2022-08-11T13:04:03;35.20;85.50
19437;DHT22;9854;50.968;4.168;2022-08-11T13:06:49;35.00;85.90
19437;DHT22;9854;50.968;4.168;2022-08-11T13:09:17;35.40;84.20
19437;DHT22;9854;50.968;4.168;2022-08-11T13:11:44;35.80;82.80
19437;DHT22;9854;50.968;4.168;2022-08-11T13:14:29;35.90;81.30
19437;DHT22;9854;50.968;4.168;2022-08-11T13:16:58;35.90;82.90
19437;DHT22;9854;50.968;4.168;2022-08-11T13:19:44;35.80;83.10
19437;DHT22;9854;50.968;4.168;2022-08-11T13:22:10;35.70;82.10
19437;DHT22;9854;50.968;4.168;2022-08-11T13:24:38;35.90;83.70
19437;DHT22;9854;50.968;4.168;2022-08-11T13:27:05;36.10;83.40
19437;DHT22;9854;50.968;4.168;2022-08-11T13:29:31;36.20;80.40
19437;DHT22;9854;50.968;4.168;2022-08-11T13:31:57;36.30;78.00
19437;DHT22;9854;50.968;4.168;2022-08-11T13:34:25;36.40;79.90
19437;DHT22;9854;50.968;4.168;2022-08-11T13:36:54;36.60;79.30
19437;DHT22;9854;50.968;4.168;2022-08-11T13:39:25;36.40;78.40
19437;DHT22;9854;50.968;4.168;2022-08-11T13:41:54;36.40;75.80
19437;DHT22;9854;50.968;4.168;2022-08-11T13:44:21;36.30;74.30
19437;DHT22;9854;50.968;4.168;2022-08-11T13:46:49;36.30;75.00
19437;DHT22;9854;50.968;4.168;2022-08-11T13:49:16;36.20;75.80
19437;DHT22;9854;50.968;4.168;2022-08-11T13:51:43;36.60;74.70
19437;DHT22;9854;50.968;4.168;2022-08-11T13:54:12;36.90;74.90
19437;DHT22;9854;50.968;4.168;2022-08-11T13:56:45;37.20;73.30
19437;DHT22;9854;50.968;4.168;2022-08-11T13:59:13;37.20;74.30
19437;DHT22;9854;50.968;4.168;2022-08-11T14:01:59;37.10;72.30
19437;DHT22;9854;50.968;4.168;2022-08-11T14:05:30;37.10;71.30
19437;DHT22;9854;50.968;4.168;2022-08-11T14:07:38;37.10;70.50
19437;DHT22;9854;50.968;4.168;2022-08-11T14:10:06;36.90;71.10
19437;DHT22;9854;50.968;4.168;2022-08-11T14:12:34;36.90;71.70
19437;DHT22;9854;50.968;4.168;2022-08-11T14:17:58;37.10;70.50
19437;DHT22;9854;50.968;4.168;2022-08-11T14:20:32;37.10;70.50
19437;DHT22;9854;50.968;4.168;2022-08-11T14:23:26;37.20;71.90
19437;DHT22;9854;50.968;4.168;2022-08-11T14:25:53;37.70;70.40
19437;DHT22;9854;50.968;4.168;2022-08-11T14:28:38;37.80;70.30
19437;DHT22;9854;50.968;4.168;2022-08-11T14:31:06;38.10;68.80
19437;DHT22;9854;50.968;4.168;2022-08-11T14:33:34;38.10;68.80
19437;DHT22;9854;50.968;4.168;2022-08-11T14:36:02;38.10;69.60
19437;DHT22;9854;50.968;4.168;2022-08-11T14:38:34;37.80;70.00
19437;DHT22;9854;50.968;4.168;2022-08-11T14:41:01;37.60;69.40
19437;DHT22;9854;50.968;4.168;2022-08-11T14:43:46;37.60;69.80
19437;DHT22;9854;50.968;4.168;2022-08-11T14:46:32;37.60;68.90
19437;DHT22;9854;50.968;4.168;2022-08-11T14:49:17;37.50;70.00
19437;DHT22;9854;50.968;4.168;2022-08-11T14:51:44;37.80;69.20
19437;DHT22;9854;50.968;4.168;2022-08-11T14:54:11;37.80;68.90
19437;DHT22;9854;50.968;4.168;2022-08-11T14:56:56;37.90;68.50
19437;DHT22;9854;50.968;4.168;2022-08-11T14:59:22;38.10;67.60
19437;DHT22;9854;50.968;4.168;2022-08-11T15:01:48;38.70;68.70
19437;DHT22;9854;50.968;4.168;2022-08-11T15:04:34;39.10;68.20
19437;DHT22;9854;50.968;4.168;2022-08-11T15:07:00;39.80;66.00
19437;DHT22;9854;50.968;4.168;2022-08-11T15:09:26;40.20;64.20
19437;DHT22;9854;50.968;4.168;2022-08-11T15:11:52;40.30;65.10
19437;DHT22;9854;50.968;4.168;2022-08-11T15:14:34;40.50;64.10
19437;DHT22;9854;50.968;4.168;2022-08-11T15:17:20;41.40;62.90
19437;DHT22;9854;50.968;4.168;2022-08-11T15:19:48;42.20;63.20
19437;DHT22;9854;50.968;4.168;2022-08-11T15:22:33;42.60;61.40
19437;DHT22;9854;50.968;4.168;2022-08-11T15:25:33;43.30;60.30
19437;DHT22;9854;50.968;4.168;2022-08-11T15:28:00;43.00;60.80
19437;DHT22;9854;50.968;4.168;2022-08-11T15:30:46;43.60;59.60
19437;DHT22;9854;50.968;4.168;2022-08-11T15:33:34;44.40;58.80
19437;DHT22;9854;50.968;4.168;2022-08-11T15:36:21;45.00;58.40
19437;DHT22;9854;50.968;4.168;2022-08-11T15:39:19;45.20;57.60
19437;DHT22;9854;50.968;4.168;2022-08-11T15:41:54;43.50;58.30
19437;DHT22;9854;50.968;4.168;2022-08-11T15:44:41;44.30;57.40
19437;DHT22;9854;50.968;4.168;2022-08-11T15:47:32;44.50;56.60
19437;DHT22;9854;50.968;4.168;2022-08-11T15:50:00;44.60;56.80
19437;DHT22;9854;50.968;4.168;2022-08-11T15:52:31;44.80;55.80
19437;DHT22;9854;50.968;4.168;2022-08-11T15:54:59;45.10;56.30
19437;DHT22;9854;50.968;4.168;2022-08-11T15:57:28;45.70;55.50
19437;DHT22;9854;50.968;4.168;2022-08-11T16:00:14;45.80;55.80
19437;DHT22;9854;50.968;4.168;2022-08-11T16:03:00;45.20;56.30
19437;DHT22;9854;50.968;4.168;2022-08-11T16:05:46;44.80;56.80
19437;DHT22;9854;50.968;4.168;2022-08-11T16:08:16;45.30;56.20
19437;DHT22;9854;50.968;4.168;2022-08-11T16:10:44;44.60;56.80
19437;DHT22;9854;50.968;4.168;2022-08-11T16:13:12;44.30;56.20
19437;DHT22;9854;50.968;4.168;2022-08-11T16:15:46;42.40;58.10
19437;DHT22;9854;50.968;4.168;2022-08-11T16:18:50;41.40;59.00
19437;DHT22;9854;50.968;4.168;2022-08-11T16:21:22;41.40;60.70
19437;DHT22;9854;50.968;4.168;2022-08-11T16:23:51;42.50;59.00
19437;DHT22;9854;50.968;4.168;2022-08-11T16:26:20;43.60;57.90
19437;DHT22;9854;50.968;4.168;2022-08-11T16:28:53;44.60;56.40
19437;DHT22;9854;50.968;4.168;2022-08-11T16:31:21;45.20;56.60
19437;DHT22;9854;50.968;4.168;2022-08-11T16:33:47;45.80;55.50
19437;DHT22;9854;50.968;4.168;2022-08-11T16:36:14;46.30;55.50
19437;DHT22;9854;50.968;4.168;2022-08-11T16:39:00;46.90;54.80
19437;DHT22;9854;50.968;4.168;2022-08-11T16:41:30;47.30;53.70
19437;DHT22;9854;50.968;4.168;2022-08-11T16:44:17;47.50;52.90
19437;DHT22;9854;50.968;4.168;2022-08-11T16:47:03;47.70;52.70
19437;DHT22;9854;50.968;4.168;2022-08-11T16:49:36;47.40;52.00
19437;DHT22;9854;50.968;4.168;2022-08-11T16:52:04;47.20;52.60
19437;DHT22;9854;50.968;4.168;2022-08-11T16:54:33;47.70;52.90
19437;DHT22;9854;50.968;4.168;2022-08-11T16:57:02;45.10;53.10
19437;DHT22;9854;50.968;4.168;2022-08-11T16:59:49;45.50;53.50
19437;DHT22;9854;50.968;4.168;2022-08-11T17:02:17;46.20;53.00
19437;DHT22;9854;50.968;4.168;2022-08-11T17:05:17;46.40;52.10
19437;DHT22;9854;50.968;4.168;2022-08-11T17:08:04;46.50;52.40
19437;DHT22;9854;50.968;4.168;2022-08-11T17:10:54;46.70;52.90
19437;DHT22;9854;50.968;4.168;2022-08-11T17:13:43;46.50;51.90
19437;DHT22;9854;50.968;4.168;2022-08-11T17:16:13;46.40;52.10
19437;DHT22;9854;50.968;4.168;2022-08-11T17:18:48;46.60;51.30
19437;DHT22;9854;50.968;4.168;2022-08-11T17:21:18;45.90;51.60
19437;DHT22;9854;50.968;4.168;2022-08-11T17:23:51;46.20;51.40
19437;DHT22;9854;50.968;4.168;2022-08-11T17:26:25;46.70;51.70
19437;DHT22;9854;50.968;4.168;2022-08-11T17:28:56;46.80;51.50
19437;DHT22;9854;50.968;4.168;2022-08-11T17:31:24;46.70;51.70
19437;DHT22;9854;50.968;4.168;2022-08-11T17:34:10;46.40;52.10
19437;DHT22;9854;50.968;4.168;2022-08-11T17:36:56;46.20;51.80
19437;DHT22;9854;50.968;4.168;2022-08-11T17:39:28;46.70;51.60
19437;DHT22;9854;50.968;4.168;2022-08-11T17:41:55;46.20;52.10
19437;DHT22;9854;50.968;4.168;2022-08-11T17:44:41;45.70;51.50
19437;DHT22;9854;50.968;4.168;2022-08-11T17:47:27;45.70;51.80
19437;DHT22;9854;50.968;4.168;2022-08-11T17:50:12;45.80;51.70
19437;DHT22;9854;50.968;4.168;2022-08-11T17:52:40;45.80;52.00
19437;DHT22;9854;50.968;4.168;2022-08-11T17:55:26;45.70;52.50
19437;DHT22;9854;50.968;4.168;2022-08-11T17:58:12;44.80;52.90
19437;DHT22;9854;50.968;4.168;2022-08-11T18:00:58;44.80;53.30
19437;DHT22;9854;50.968;4.168;2022-08-11T18:03:25;44.60;53.70
19437;DHT22;9854;50.968;4.168;2022-08-11T18:06:01;44.50;53.80
19437;DHT22;9854;50.968;4.168;2022-08-11T18:08:32;43.90;54.40
19437;DHT22;9854;50.968;4.168;2022-08-11T18:11:18;44.00;54.40
19437;DHT22;9854;50.968;4.168;2022-08-11T18:14:06;43.70;53.50
19437;DHT22;9854;50.968;4.168;2022-08-11T18:16:51;43.50;54.80
19437;DHT22;9854;50.968;4.168;2022-08-11T18:19:36;43.80;54.50
19437;DHT22;9854;50.968;4.168;2022-08-11T18:22:27;43.60;54.40
19437;DHT22;9854;50.968;4.168;2022-08-11T18:25:16;43.20;54.80
19437;DHT22;9854;50.968;4.168;2022-08-11T18:28:05;43.10;55.10
19437;DHT22;9854;50.968;4.168;2022-08-11T18:30:51;42.80;55.80
19437;DHT22;9854;50.968;4.168;2022-08-11T18:33:50;42.60;56.10
19437;DHT22;9854;50.968;4.168;2022-08-11T18:36:38;42.00;56.50
19437;DHT22;9854;50.968;4.168;2022-08-11T18:39:27;41.60;57.00
19437;DHT22;9854;50.968;4.168;2022-08-11T18:42:15;41.30;57.40
19437;DHT22;9854;50.968;4.168;2022-08-11T18:45:03;40.90;57.80
19437;DHT22;9854;50.968;4.168;2022-08-11T18:47:51;40.20;58.00
19437;DHT22;9854;50.968;4.168;2022-08-11T18:50:43;39.80;58.80
19437;DHT22;9854;50.968;4.168;2022-08-11T18:53:27;39.20;59.70
19437;DHT22;9854;50.968;4.168;2022-08-11T18:56:13;38.40;60.60
19437;DHT22;9854;50.968;4.168;2022-08-11T18:59:00;37.70;61.50
19437;DHT22;9854;50.968;4.168;2022-08-11T19:01:46;37.10;62.80
19437;DHT22;9854;50.968;4.168;2022-08-11T19:04:30;36.50;63.70
19437;DHT22;9854;50.968;4.168;2022-08-11T19:07:16;35.90;64.30
19437;DHT22;9854;50.968;4.168;2022-08-11T19:10:02;35.40;65.60
19437;DHT22;9854;50.968;4.168;2022-08-11T19:12:48;34.90;66.60
19437;DHT22;9854;50.968;4.168;2022-08-11T19:15:34;34.30;67.70
19437;DHT22;9854;50.968;4.168;2022-08-11T19:18:21;33.80;68.70
19437;DHT22;9854;50.968;4.168;2022-08-11T19:21:07;33.40;69.80
19437;DHT22;9854;50.968;4.168;2022-08-11T19:23:55;33.10;70.80
19437;DHT22;9854;50.968;4.168;2022-08-11T19:26:40;32.70;71.30
19437;DHT22;9854;50.968;4.168;2022-08-11T19:29:26;32.20;72.30
19437;DHT22;9854;50.968;4.168;2022-08-11T19:32:12;32.10;72.90
19437;DHT22;9854;50.968;4.168;2022-08-11T19:34:57;31.90;73.50
19437;DHT22;9854;50.968;4.168;2022-08-11T19:37:44;31.70;73.40
19437;DHT22;9854;50.968;4.168;2022-08-11T19:40:28;31.50;74.20
19437;DHT22;9854;50.968;4.168;2022-08-11T19:43:13;31.40;74.70
19437;DHT22;9854;50.968;4.168;2022-08-11T19:46:00;31.20;75.20
19437;DHT22;9854;50.968;4.168;2022-08-11T19:48:48;31.20;75.30
19437;DHT22;9854;50.968;4.168;2022-08-11T19:51:35;31.10;75.80
19437;DHT22;9854;50.968;4.168;2022-08-11T19:54:23;31.00;76.20
19437;DHT22;9854;50.968;4.168;2022-08-11T19:57:09;30.60;76.40
19437;DHT22;9854;50.968;4.168;2022-08-11T19:59:54;30.60;76.90
19437;DHT22;9854;50.968;4.168;2022-08-11T20:02:39;30.40;77.20
19437;DHT22;9854;50.968;4.168;2022-08-11T20:05:23;30.30;77.40
19437;DHT22;9854;50.968;4.168;2022-08-11T20:08:08;30.20;77.60
19437;DHT22;9854;50.968;4.168;2022-08-11T20:10:54;30.10;77.80
19437;DHT22;9854;50.968;4.168;2022-08-11T20:13:41;29.90;78.20
19437;DHT22;9854;50.968;4.168;2022-08-11T20:16:27;29.80;78.70
19437;DHT22;9854;50.968;4.168;2022-08-11T20:19:13;29.70;78.90